sensor_id;sensor_type;location;lat;lon;timestamp;temperature;humidity
20598;DHT22;10457;48.770;11.446;2022-09-25T00:00:01;12.20;99.90
20598;DHT22;10457;48.770;11.446;2022-09-25T00:05:28;12.20;99.90
20598;DHT22;10457;48.770;11.446;2022-09-25T00:10:50;12.10;99.90
20598;DHT22;10457;48.770;11.446;2022-09-25T00:16:13;12.00;99.90
20598;DHT22;10457;48.770;11.446;2022-09-25T00:21:37;12.00;99.90
20598;DHT22;10457;48.770;11.446;2022-09-25T00:26:59;11.90;99.90
20598;DHT22;10457;48.770;11.446;2022-09-25T00:32:21;11.80;99.90
20598;DHT22;10457;48.770;11.446;2022-09-25T00:37:44;11.80;99.90
20598;DHT22;10457;48.770;11.446;2022-09-25T00:43:10;11.80;99.90
20598;DHT22;10457;48.770;11.446;2022-09-25T00:48:33;11.90;99.90
20598;DHT22;10457;48.770;11.446;2022-09-25T00:53:57;11.90;99.90
20598;DHT22;10457;48.770;11.446;2022-09-25T00:59:29;11.90;99.90
20598;DHT22;10457;48.770;11.446;2022-09-25T01:04:55;11.90;99.90
20598;DHT22;10457;48.770;11.446;2022-09-25T01:10:20;11.90;99.90
20598;DHT22;10457;48.770;11.446;2022-09-25T01:15:45;12.00;99.90
20598;DHT22;10457;48.770;11.446;2022-09-25T01:21:18;11.90;99.90
20598;DHT22;10457;48.770;11.446;2022-09-25T01:27:28;11.90;99.90
20598;DHT22;10457;48.770;11.446;2022-09-25T01:32:58;11.80;99.90
20598;DHT22;10457;48.770;11.446;2022-09-25T01:38:25;11.80;99.90
20598;DHT22;10457;48.770;11.446;2022-09-25T01:43:56;11.70;99.90
20598;DHT22;10457;48.770;11.446;2022-09-25T01:49:24;11.70;99.90
20598;DHT22;10457;48.770;11.446;2022-09-25T01:54:54;11.70;99.90
20598;DHT22;10457;48.770;11.446;2022-09-25T02:00:23;11.70;99.90
20598;DHT22;10457;48.770;11.446;2022-09-25T02:05:48;11.70;99.90
20598;DHT22;10457;48.770;11.446;2022-09-25T02:11:12;11.70;99.90
20598;DHT22;10457;48.770;11.446;2022-09-25T02:16:36;11.80;99.90
20598;DHT22;10457;48.770;11.446;2022-09-25T02:22:07;11.80;99.90
20598;DHT22;10457;48.770;11.446;2022-09-25T02:27:32;11.70;99.90
20598;DHT22;10457;48.770;11.446;2022-09-25T02:32:53;11.50;99.90
20598;DHT22;10457;48.770;11.446;2022-09-25T02:38:18;11.50;99.90
20598;DHT22;10457;48.770;11.446;2022-09-25T02:43:46;11.50;99.90
20598;DHT22;10457;48.770;11.446;2022-09-25T02:49:17;11.50;99.90
20598;DHT22;10457;48.770;11.446;2022-09-25T02:55:13;11.40;99.90
20598;DHT22;10457;48.770;11.446;2022-09-25T03:00:39;11.40;99.90
20598;DHT22;10457;48.770;11.446;2022-09-25T03:06:02;11.30;99.90
20598;DHT22;10457;48.770;11.446;2022-09-25T03:11:27;11.30;99.90
20598;DHT22;10457;48.770;11.446;2022-09-25T03:16:50;11.30;99.90
20598;DHT22;10457;48.770;11.446;2022-09-25T03:22:14;11.20;99.90
20598;DHT22;10457;48.770;11.446;2022-09-25T03:27:41;11.30;99.90
20598;DHT22;10457;48.770;11.446;2022-09-25T03:33:03;11.20;99.90
20598;DHT22;10457;48.770;11.446;2022-09-25T03:38:24;11.30;99.90
20598;DHT22;10457;48.770;11.446;2022-09-25T03:43:49;11.30;99.90
20598;DHT22;10457;48.770;11.446;2022-09-25T03:49:11;11.40;99.90
20598;DHT22;10457;48.770;11.446;2022-09-25T03:54:32;11.40;99.90
20598;DHT22;10457;48.770;11.446;2022-09-25T03:59:55;11.40;99.90
20598;DHT22;10457;48.770;11.446;2022-09-25T04:05:20;11.40;99.90
20598;DHT22;10457;48.770;11.446;2022-09-25T04:10:42;11.40;99.90
20598;DHT22;10457;48.770;11.446;2022-09-25T04:16:05;11.40;99.90
20598;DHT22;10457;48.770;11.446;2022-09-25T04:21:28;11.30;99.90
20598;DHT22;10457;48.770;11.446;2022-09-25T04:26:49;11.30;99.90
20598;DHT22;10457;48.770;11.446;2022-09-25T04:32:14;11.30;99.90
20598;DHT22;10457;48.770;11.446;2022-09-25T04:37:54;11.30;99.90
20598;DHT22;10457;48.770;11.446;2022-09-25T04:43:15;11.30;99.90
20598;DHT22;10457;48.770;11.446;2022-09-25T04:48:38;11.30;99.90
20598;DHT22;10457;48.770;11.446;2022-09-25T04:54:02;11.20;99.90
20598;DHT22;10457;48.770;11.446;2022-09-25T04:59:24;11.30;99.90
20598;DHT22;10457;48.770;11.446;2022-09-25T05:04:47;11.30;99.90
20598;DHT22;10457;48.770;11.446;2022-09-25T05:10:09;11.30;99.90
20598;DHT22;10457;48.770;11.446;2022-09-25T05:15:33;11.30;99.90
20598;DHT22;10457;48.770;11.446;2022-09-25T05:20:56;11.30;99.90
20598;DHT22;10457;48.770;11.446;2022-09-25T05:26:17;11.40;99.90
20598;DHT22;10457;48.770;11.446;2022-09-25T05:31:39;11.40;99.90
20598;DHT22;10457;48.770;11.446;2022-09-25T05:37:03;11.40;99.90
20598;DHT22;10457;48.770;11.446;2022-09-25T05:42:25;11.50;99.90
20598;DHT22;10457;48.770;11.446;2022-09-25T05:47:47;11.40;99.90
20598;DHT22;10457;48.770;11.446;2022-09-25T05:53:09;11.40;99.90
20598;DHT22;10457;48.770;11.446;2022-09-25T05:58:32;11.50;99.90
20598;DHT22;10457;48.770;11.446;2022-09-25T06:03:55;11.60;99.90
20598;DHT22;10457;48.770;11.446;2022-09-25T06:09:18;11.50;99.90
20598;DHT22;10457;48.770;11.446;2022-09-25T06:14:39;11.50;99.90
20598;DHT22;10457;48.770;11.446;2022-09-25T06:20:01;11.50;99.90
20598;DHT22;10457;48.770;11.446;2022-09-25T06:25:25;11.60;99.90
20598;DHT22;10457;48.770;11.446;2022-09-25T06:30:48;11.60;99.90
20598;DHT22;10457;48.770;11.446;2022-09-25T06:36:10;11.80;99.90
20598;DHT22;10457;48.770;11.446;2022-09-25T06:41:33;11.80;99.90
20598;DHT22;10457;48.770;11.446;2022-09-25T06:46:55;11.90;99.90
20598;DHT22;10457;48.770;11.446;2022-09-25T06:52:18;11.90;99.90
20598;DHT22;10457;48.770;11.446;2022-09-25T06:57:41;11.90;99.90
20598;DHT22;10457;48.770;11.446;2022-09-25T07:03:06;11.80;99.90
20598;DHT22;10457;48.770;11.446;2022-09-25T07:08:45;12.10;99.90
20598;DHT22;10457;48.770;11.446;2022-09-25T07:14:10;12.00;99.90
20598;DHT22;10457;48.770;11.446;2022-09-25T07:19:31;12.00;99.90
20598;DHT22;10457;48.770;11.446;2022-09-25T07:24:52;11.90;99.90
20598;DHT22;10457;48.770;11.446;2022-09-25T07:30:15;11.90;99.90
20598;DHT22;10457;48.770;11.446;2022-09-25T07:35:37;11.90;99.90
20598;DHT22;10457;48.770;11.446;2022-09-25T07:41:02;12.00;99.90
20598;DHT22;10457;48.770;11.446;2022-09-25T07:46:26;11.90;99.90
20598;DHT22;10457;48.770;11.446;2022-09-25T07:51:53;12.00;99.90
20598;DHT22;10457;48.770;11.446;2022-09-25T07:57:14;12.00;99.90
20598;DHT22;10457;48.770;11.446;2022-09-25T08:02:41;12.10;99.90
20598;DHT22;10457;48.770;11.446;2022-09-25T08:08:02;12.20;99.90
20598;DHT22;10457;48.770;11.446;2022-09-25T08:13:23;12.40;99.90
20598;DHT22;10457;48.770;11.446;2022-09-25T08:18:46;12.70;99.90
20598;DHT22;10457;48.770;11.446;2022-09-25T08:24:08;12.80;99.90
20598;DHT22;10457;48.770;11.446;2022-09-25T08:29:30;12.90;99.90
20598;DHT22;10457;48.770;11.446;2022-09-25T08:34:54;13.20;99.90
20598;DHT22;10457;48.770;11.446;2022-09-25T08:40:18;13.20;99.90
20598;DHT22;10457;48.770;11.446;2022-09-25T08:45:44;13.20;99.90
20598;DHT22;10457;48.770;11.446;2022-09-25T08:51:25;13.30;99.90
20598;DHT22;10457;48.770;11.446;2022-09-25T08:56:48;13.40;99.90
20598;DHT22;10457;48.770;11.446;2022-09-25T09:02:13;13.20;99.90
20598;DHT22;10457;48.770;11.446;2022-09-25T09:07:43;13.20;99.90
20598;DHT22;10457;48.770;11.446;2022-09-25T09:13:15;13.40;99.90
20598;DHT22;10457;48.770;11.446;2022-09-25T09:18:40;13.20;99.90
20598;DHT22;10457;48.770;11.446;2022-09-25T09:24:12;13.30;99.90
20598;DHT22;10457;48.770;11.446;2022-09-25T09:29:43;13.30;99.90
20598;DHT22;10457;48.770;11.446;2022-09-25T09:35:20;13.20;99.90
20598;DHT22;10457;48.770;11.446;2022-09-25T09:41:01;13.20;99.90
20598;DHT22;10457;48.770;11.446;2022-09-25T09:46:38;13.30;99.90
20598;DHT22;10457;48.770;11.446;2022-09-25T09:52:08;13.40;99.90
20598;DHT22;10457;48.770;11.446;2022-09-25T09:57:37;13.40;99.90
20598;DHT22;10457;48.770;11.446;2022-09-25T10:03:08;13.40;99.90
20598;DHT22;10457;48.770;11.446;2022-09-25T10:08:33;13.20;99.90
20598;DHT22;10457;48.770;11.446;2022-09-25T10:13:57;13.40;99.90
20598;DHT22;10457;48.770;11.446;2022-09-25T10:19:21;13.50;99.90
20598;DHT22;10457;48.770;11.446;2022-09-25T10:24:53;13.60;99.90
20598;DHT22;10457;48.770;11.446;2022-09-25T10:30:19;13.60;99.90
20598;DHT22;10457;48.770;11.446;2022-09-25T10:35:43;13.70;99.90
20598;DHT22;10457;48.770;11.446;2022-09-25T10:41:07;13.90;99.90
20598;DHT22;10457;48.770;11.446;2022-09-25T10:46:33;13.90;99.90
20598;DHT22;10457;48.770;11.446;2022-09-25T10:52:14;13.90;99.90
20598;DHT22;10457;48.770;11.446;2022-09-25T10:57:38;13.90;99.90
20598;DHT22;10457;48.770;11.446;2022-09-25T11:03:03;13.80;99.90
20598;DHT22;10457;48.770;11.446;2022-09-25T11:08:28;13.90;99.90
20598;DHT22;10457;48.770;11.446;2022-09-25T11:13:52;13.90;99.90
20598;DHT22;10457;48.770;11.446;2022-09-25T11:19:23;13.90;99.90
20598;DHT22;10457;48.770;11.446;2022-09-25T11:25:02;13.90;99.90
20598;DHT22;10457;48.770;11.446;2022-09-25T11:30:32;14.00;99.90
20598;DHT22;10457;48.770;11.446;2022-09-25T11:36:05;14.30;99.90
20598;DHT22;10457;48.770;11.446;2022-09-25T11:41:34;14.30;99.90
20598;DHT22;10457;48.770;11.446;2022-09-25T11:47:05;14.30;99.90
20598;DHT22;10457;48.770;11.446;2022-09-25T11:52:39;14.40;99.90
20598;DHT22;10457;48.770;11.446;2022-09-25T11:58:22;14.50;99.90
20598;DHT22;10457;48.770;11.446;2022-09-25T12:04:24;14.70;99.90
20598;DHT22;10457;48.770;11.446;2022-09-25T12:10:24;14.60;99.90
20598;DHT22;10457;48.770;11.446;2022-09-25T12:16:01;14.70;99.90
20598;DHT22;10457;48.770;11.446;2022-09-25T12:21:35;14.60;99.90
20598;DHT22;10457;48.770;11.446;2022-09-25T12:27:10;14.70;97.50
20598;DHT22;10457;48.770;11.446;2022-09-25T12:32:48;14.80;93.20
20598;DHT22;10457;48.770;11.446;2022-09-25T12:38:26;14.80;90.40
20598;DHT22;10457;48.770;11.446;2022-09-25T12:43:59;14.90;89.80
20598;DHT22;10457;48.770;11.446;2022-09-25T12:49:27;15.20;87.90
20598;DHT22;10457;48.770;11.446;2022-09-25T12:54:59;15.60;91.10
20598;DHT22;10457;48.770;11.446;2022-09-25T13:00:29;16.20;83.60
20598;DHT22;10457;48.770;11.446;2022-09-25T13:05:58;16.70;83.40
20598;DHT22;10457;48.770;11.446;2022-09-25T13:11:33;17.00;80.40
20598;DHT22;10457;48.770;11.446;2022-09-25T13:17:00;17.30;74.70
20598;DHT22;10457;48.770;11.446;2022-09-25T13:22:23;17.60;72.90
20598;DHT22;10457;48.770;11.446;2022-09-25T13:27:46;17.40;72.60
20598;DHT22;10457;48.770;11.446;2022-09-25T13:33:18;17.40;74.00
20598;DHT22;10457;48.770;11.446;2022-09-25T13:38:45;17.90;72.20
20598;DHT22;10457;48.770;11.446;2022-09-25T13:44:37;18.50;70.10
20598;DHT22;10457;48.770;11.446;2022-09-25T13:50:23;18.50;66.90
20598;DHT22;10457;48.770;11.446;2022-09-25T13:56:14;18.40;69.00
20598;DHT22;10457;48.770;11.446;2022-09-25T14:01:55;17.40;71.30
20598;DHT22;10457;48.770;11.446;2022-09-25T14:07:23;17.40;72.00
20598;DHT22;10457;48.770;11.446;2022-09-25T14:12:47;17.30;72.70
20598;DHT22;10457;48.770;11.446;2022-09-25T14:18:15;16.90;73.40
20598;DHT22;10457;48.770;11.446;2022-09-25T14:23:48;17.10;75.10
20598;DHT22;10457;48.770;11.446;2022-09-25T14:29:15;17.40;73.40
20598;DHT22;10457;48.770;11.446;2022-09-25T14:34:55;16.80;73.50
20598;DHT22;10457;48.770;11.446;2022-09-25T14:40:28;16.40;77.00
20598;DHT22;10457;48.770;11.446;2022-09-25T14:46:01;16.60;77.00
20598;DHT22;10457;48.770;11.446;2022-09-25T14:51:28;16.60;76.90
20598;DHT22;10457;48.770;11.446;2022-09-25T14:56:57;16.60;77.80
20598;DHT22;10457;48.770;11.446;2022-09-25T15:02:20;16.70;77.80
20598;DHT22;10457;48.770;11.446;2022-09-25T15:07:44;16.60;77.70
20598;DHT22;10457;48.770;11.446;2022-09-25T15:13:13;16.30;76.90
20598;DHT22;10457;48.770;11.446;2022-09-25T15:18:36;16.10;77.70
20598;DHT22;10457;48.770;11.446;2022-09-25T15:24:02;16.10;76.60
20598;DHT22;10457;48.770;11.446;2022-09-25T15:29:27;16.00;76.20
20598;DHT22;10457;48.770;11.446;2022-09-25T15:34:49;15.70;78.00
20598;DHT22;10457;48.770;11.446;2022-09-25T15:40:18;15.60;79.70
20598;DHT22;10457;48.770;11.446;2022-09-25T15:45:48;15.60;81.80
20598;DHT22;10457;48.770;11.446;2022-09-25T15:51:18;15.50;83.00
20598;DHT22;10457;48.770;11.446;2022-09-25T15:56:45;15.50;83.60
20598;DHT22;10457;48.770;11.446;2022-09-25T16:02:16;15.50;84.40
20598;DHT22;10457;48.770;11.446;2022-09-25T16:08:15;15.20;85.20
20598;DHT22;10457;48.770;11.446;2022-09-25T16:13:49;15.20;86.40
20598;DHT22;10457;48.770;11.446;2022-09-25T16:19:29;15.10;89.50
20598;DHT22;10457;48.770;11.446;2022-09-25T16:24:53;15.20;88.30
20598;DHT22;10457;48.770;11.446;2022-09-25T16:30:17;15.10;88.10
20598;DHT22;10457;48.770;11.446;2022-09-25T16:35:42;14.90;90.00
20598;DHT22;10457;48.770;11.446;2022-09-25T16:41:09;14.70;91.40
20598;DHT22;10457;48.770;11.446;2022-09-25T16:46:40;14.50;93.30
20598;DHT22;10457;48.770;11.446;2022-09-25T16:52:05;14.40;93.80
20598;DHT22;10457;48.770;11.446;2022-09-25T16:57:27;14.40;95.00
20598;DHT22;10457;48.770;11.446;2022-09-25T17:02:52;14.30;96.50
20598;DHT22;10457;48.770;11.446;2022-09-25T17:08:17;14.20;95.90
20598;DHT22;10457;48.770;11.446;2022-09-25T17:13:41;14.10;98.40
20598;DHT22;10457;48.770;11.446;2022-09-25T17:19:04;14.00;99.90
20598;DHT22;10457;48.770;11.446;2022-09-25T17:24:31;13.90;99.90
20598;DHT22;10457;48.770;11.446;2022-09-25T17:29:52;13.80;99.90
20598;DHT22;10457;48.770;11.446;2022-09-25T17:35:26;13.80;99.90
20598;DHT22;10457;48.770;11.446;2022-09-25T17:40:53;13.80;99.90
20598;DHT22;10457;48.770;11.446;2022-09-25T17:46:17;13.90;99.90
20598;DHT22;10457;48.770;11.446;2022-09-25T17:51:40;13.90;99.90
20598;DHT22;10457;48.770;11.446;2022-09-25T17:57:03;14.00;99.50
20598;DHT22;10457;48.770;11.446;2022-09-25T18:02:24;13.90;98.80
20598;DHT22;10457;48.770;11.446;2022-09-25T18:07:48;13.90;99.90
20598;DHT22;10457;48.770;11.446;2022-09-25T18:13:14;13.70;99.90
20598;DHT22;10457;48.770;11.446;2022-09-25T18:18:38;13.50;99.90
20598;DHT22;10457;48.770;11.446;2022-09-25T18:24:17;13.50;99.90
20598;DHT22;10457;48.770;11.446;2022-09-25T18:29:41;13.50;99.90
20598;DHT22;10457;48.770;11.446;2022-09-25T18:35:04;13.50;99.90
20598;DHT22;10457;48.770;11.446;2022-09-25T18:40:26;13.50;99.90
20598;DHT22;10457;48.770;11.446;2022-09-25T18:45:49;13.50;99.90
20598;DHT22;10457;48.770;11.446;2022-09-25T18:51:11;13.40;99.90
20598;DHT22;10457;48.770;11.446;2022-09-25T18:56:33;13.40;99.90
20598;DHT22;10457;48.770;11.446;2022-09-25T19:01:56;13.50;99.90
20598;DHT22;10457;48.770;11.446;2022-09-25T19:07:18;13.40;99.90
20598;DHT22;10457;48.770;11.446;2022-09-25T19:12:45;13.40;99.90
20598;DHT22;10457;48.770;11.446;2022-09-25T19:18:08;13.40;99.90
20598;DHT22;10457;48.770;11.446;2022-09-25T19:23:34;13.30;99.90
20598;DHT22;10457;48.770;11.446;2022-09-25T19:29:20;13.30;99.90
20598;DHT22;10457;48.770;11.446;2022-09-25T19:34:43;13.20;99.90
20598;DHT22;10457;48.770;11.446;2022-09-25T19:40:06;13.10;99.90
20598;DHT22;10457;48.770;11.446;2022-09-25T19:45:49;13.10;99.90
20598;DHT22;10457;48.770;11.446;2022-09-25T19:51:13;13.00;99.90
20598;DHT22;10457;48.770;11.446;2022-09-25T19:56:35;12.90;99.90
20598;DHT22;10457;48.770;11.446;2022-09-25T20:01:59;12.80;99.90
20598;DHT22;10457;48.770;11.446;2022-09-25T20:07:22;12.70;99.90
20598;DHT22;10457;48.770;11.446;2022-09-25T20:12:43;12.60;99.90
20598;DHT22;10457;48.770;11.446;2022-09-25T20:18:05;12.50;99.90
20598;DHT22;10457;48.770;11.446;2022-09-25T20:23:28;12.50;99.90
20598;DHT22;10457;48.770;11.446;2022-09-25T20:28:52;12.50;99.90
20598;DHT22;10457;48.770;11.446;2022-09-25T20:34:17;12.50;99.90
20598;DHT22;10457;48.770;11.446;2022-09-25T20:39:43;12.50;99.90
20598;DHT22;10457;48.770;11.446;2022-09-25T20:45:08;12.50;99.90
20598;DHT22;10457;48.770;11.446;2022-09-25T20:50:30;12.50;99.90
20598;DHT22;10457;48.770;11.446;2022-09-25T20:55:54;12.40;99.90
20598;DHT22;10457;48.770;11.446;2022-09-25T21:01:19;12.40;99.90
20598;DHT22;10457;48.770;11.446;2022-09-25T21:06:42;12.30;99.90
20598;DHT22;10457;48.770;11.446;2022-09-25T21:12:05;12.30;99.90
20598;DHT22;10457;48.770;11.446;2022-09-25T21:17:27;12.20;99.90
20598;DHT22;10457;48.770;11.446;2022-09-25T21:22:48;12.20;99.90
20598;DHT22;10457;48.770;11.446;2022-09-25T21:28:12;12.10;99.90
20598;DHT22;10457;48.770;11.446;2022-09-25T21:33:34;12.20;99.90
20598;DHT22;10457;48.770;11.446;2022-09-25T21:38:56;12.10;99.90
20598;DHT22;10457;48.770;11.446;2022-09-25T21:44:19;12.20;99.90
20598;DHT22;10457;48.770;11.446;2022-09-25T21:49:44;12.10;99.90
20598;DHT22;10457;48.770;11.446;2022-09-25T21:55:07;12.10;99.90
20598;DHT22;10457;48.770;11.446;2022-09-25T22:00:31;12.00;99.90
20598;DHT22;10457;48.770;11.446;2022-09-25T22:05:57;12.00;99.90
20598;DHT22;10457;48.770;11.446;2022-09-25T22:11:19;12.00;99.90
20598;DHT22;10457;48.770;11.446;2022-09-25T22:16:43;12.00;99.90
20598;DHT22;10457;48.770;11.446;2022-09-25T22:22:06;11.90;99.90
20598;DHT22;10457;48.770;11.446;2022-09-25T22:27:27;11.90;99.90
20598;DHT22;10457;48.770;11.446;2022-09-25T22:32:59;11.90;99.90
20598;DHT22;10457;48.770;11.446;2022-09-25T22:38:20;11.90;99.90
20598;DHT22;10457;48.770;11.446;2022-09-25T22:43:42;11.90;99.90
20598;DHT22;10457;48.770;11.446;2022-09-25T22:49:05;11.90;99.90
20598;DHT22;10457;48.770;11.446;2022-09-25T22:54:27;12.00;99.90
20598;DHT22;10457;48.770;11.446;2022-09-25T22:59:48;12.00;99.90
20598;DHT22;10457;48.770;11.446;2022-09-25T23:05:11;12.10;99.90
20598;DHT22;10457;48.770;11.446;2022-09-25T23:10:33;12.00;99.90
20598;DHT22;10457;48.770;11.446;2022-09-25T23:15:55;12.10;99.90
20598;DHT22;10457;48.770;11.446;2022-09-25T23:21:18;11.90;99.90
20598;DHT22;10457;48.770;11.446;2022-09-25T23:26:39;11.80;99.90
20598;DHT22;10457;48.770;11.446;2022-09-25T23:32:01;11.70;99.90
20598;DHT22;10457;48.770;11.446;2022-09-25T23:37:28;11.70;99.90
20598;DHT22;10457;48.770;11.446;2022-09-25T23:42:49;11.70;99.90
20598;DHT22;10457;48.770;11.446;2022-09-25T23:48:12;11.70;99.90
20598;DHT22;10457;48.770;11.446;2022-09-25T23:53:36;11.70;99.90
20598;DHT22;10457;48.770;11.446;2022-09-25T23:59:00;11.70;99.90
